sensor_id;sensor_type;location;lat;lon;timestamp;temperature;humidity
39401;DHT22;54391;50.000;7.360;2023-04-03T00:00:34;1.90;21.70
39401;DHT22;54391;50.000;7.360;2023-04-03T00:03:01;1.90;22.50
39401;DHT22;54391;50.000;7.360;2023-04-03T00:05:29;1.90;22.10
39401;DHT22;54391;50.000;7.360;2023-04-03T00:07:56;1.80;22.60
39401;DHT22;54391;50.000;7.360;2023-04-03T00:12:51;1.80;22.60
39401;DHT22;54391;50.000;7.360;2023-04-03T00:15:19;1.70;22.60
39401;DHT22;54391;50.000;7.360;2023-04-03T00:17:47;1.70;23.60
39401;DHT22;54391;50.000;7.360;2023-04-03T00:20:14;1.80;23.20
39401;DHT22;54391;50.000;7.360;2023-04-03T00:25:09;1.70;22.70
39401;DHT22;54391;50.000;7.360;2023-04-03T00:27:37;1.80;22.20
39401;DHT22;54391;50.000;7.360;2023-04-03T00:30:07;1.80;22.70
39401;DHT22;54391;50.000;7.360;2023-04-03T00:32:37;1.80;22.60
39401;DHT22;54391;50.000;7.360;2023-04-03T00:35:05;1.80;23.00
39401;DHT22;54391;50.000;7.360;2023-04-03T00:37:33;1.80;23.20
39401;DHT22;54391;50.000;7.360;2023-04-03T00:40:00;1.80;22.50
39401;DHT22;54391;50.000;7.360;2023-04-03T00:45:31;1.80;22.70
39401;DHT22;54391;50.000;7.360;2023-04-03T00:48:04;1.90;22.30
39401;DHT22;54391;50.000;7.360;2023-04-03T00:50:35;1.90;21.40
39401;DHT22;54391;50.000;7.360;2023-04-03T00:53:03;1.90;22.60
39401;DHT22;54391;50.000;7.360;2023-04-03T00:55:31;1.90;20.50
39401;DHT22;54391;50.000;7.360;2023-04-03T00:58:00;1.90;20.90
39401;DHT22;54391;50.000;7.360;2023-04-03T01:00:28;1.90;21.30
39401;DHT22;54391;50.000;7.360;2023-04-03T01:02:56;1.80;20.80
39401;DHT22;54391;50.000;7.360;2023-04-03T01:05:25;2.70;22.40
39401;DHT22;54391;50.000;7.360;2023-04-03T01:07:53;1.80;21.30
39401;DHT22;54391;50.000;7.360;2023-04-03T01:10:21;1.80;21.20
39401;DHT22;54391;50.000;7.360;2023-04-03T01:12:51;1.90;20.90
39401;DHT22;54391;50.000;7.360;2023-04-03T01:15:20;1.80;21.20
39401;DHT22;54391;50.000;7.360;2023-04-03T01:17:50;1.70;20.90
39401;DHT22;54391;50.000;7.360;2023-04-03T01:23:43;1.70;20.40
39401;DHT22;54391;50.000;7.360;2023-04-03T01:26:14;1.70;20.70
39401;DHT22;54391;50.000;7.360;2023-04-03T01:28:41;1.80;21.10
39401;DHT22;54391;50.000;7.360;2023-04-03T01:31:16;1.90;21.20
39401;DHT22;54391;50.000;7.360;2023-04-03T01:33:48;2.00;22.40
39401;DHT22;54391;50.000;7.360;2023-04-03T01:36:18;1.90;23.70
39401;DHT22;54391;50.000;7.360;2023-04-03T01:38:46;1.90;25.20
39401;DHT22;54391;50.000;7.360;2023-04-03T01:41:14;1.90;25.50
39401;DHT22;54391;50.000;7.360;2023-04-03T01:43:42;1.80;24.90
39401;DHT22;54391;50.000;7.360;2023-04-03T01:46:09;1.70;25.10
39401;DHT22;54391;50.000;7.360;2023-04-03T01:48:38;1.70;25.90
39401;DHT22;54391;50.000;7.360;2023-04-03T01:51:06;1.60;26.00
39401;DHT22;54391;50.000;7.360;2023-04-03T01:53:34;1.60;25.80
39401;DHT22;54391;50.000;7.360;2023-04-03T02:00:58;1.60;23.20
39401;DHT22;54391;50.000;7.360;2023-04-03T02:03:26;1.50;22.80
39401;DHT22;54391;50.000;7.360;2023-04-03T02:08:22;1.60;22.10
39401;DHT22;54391;50.000;7.360;2023-04-03T02:10:50;1.60;22.60
39401;DHT22;54391;50.000;7.360;2023-04-03T02:13:18;1.70;21.50
39401;DHT22;54391;50.000;7.360;2023-04-03T02:15:46;1.70;22.40
39401;DHT22;54391;50.000;7.360;2023-04-03T02:18:16;1.70;22.80
39401;DHT22;54391;50.000;7.360;2023-04-03T02:20:43;1.80;21.90
39401;DHT22;54391;50.000;7.360;2023-04-03T02:23:11;1.80;20.80
39401;DHT22;54391;50.000;7.360;2023-04-03T02:25:39;1.80;20.80
39401;DHT22;54391;50.000;7.360;2023-04-03T02:30:34;1.60;21.50
39401;DHT22;54391;50.000;7.360;2023-04-03T02:35:29;1.70;21.00
39401;DHT22;54391;50.000;7.360;2023-04-03T02:38:00;1.50;21.60
39401;DHT22;54391;50.000;7.360;2023-04-03T02:40:29;1.60;22.60
39401;DHT22;54391;50.000;7.360;2023-04-03T02:42:57;1.70;22.80
39401;DHT22;54391;50.000;7.360;2023-04-03T02:47:53;1.70;21.70
39401;DHT22;54391;50.000;7.360;2023-04-03T02:50:20;1.70;21.50
39401;DHT22;54391;50.000;7.360;2023-04-03T02:52:48;1.70;20.80
39401;DHT22;54391;50.000;7.360;2023-04-03T02:55:15;1.80;20.80
39401;DHT22;54391;50.000;7.360;2023-04-03T02:57:44;1.80;19.30
39401;DHT22;54391;50.000;7.360;2023-04-03T03:00:14;1.90;19.10
39401;DHT22;54391;50.000;7.360;2023-04-03T03:02:42;1.80;19.40
39401;DHT22;54391;50.000;7.360;2023-04-03T03:05:09;1.90;19.70
39401;DHT22;54391;50.000;7.360;2023-04-03T03:07:36;1.80;20.00
39401;DHT22;54391;50.000;7.360;2023-04-03T03:10:04;1.90;19.80
39401;DHT22;54391;50.000;7.360;2023-04-03T03:14:59;2.00;20.00
39401;DHT22;54391;50.000;7.360;2023-04-03T03:17:29;1.90;19.30
39401;DHT22;54391;50.000;7.360;2023-04-03T03:19:56;1.90;19.30
39401;DHT22;54391;50.000;7.360;2023-04-03T03:22:23;1.90;19.70
39401;DHT22;54391;50.000;7.360;2023-04-03T03:24:51;1.80;19.40
39401;DHT22;54391;50.000;7.360;2023-04-03T03:27:18;1.80;20.10
39401;DHT22;54391;50.000;7.360;2023-04-03T03:29:45;1.80;20.00
39401;DHT22;54391;50.000;7.360;2023-04-03T03:32:13;1.80;20.10
39401;DHT22;54391;50.000;7.360;2023-04-03T03:34:42;1.70;20.50
39401;DHT22;54391;50.000;7.360;2023-04-03T03:37:09;1.80;20.30
39401;DHT22;54391;50.000;7.360;2023-04-03T03:42:04;1.70;20.80
39401;DHT22;54391;50.000;7.360;2023-04-03T03:44:31;1.70;20.90
39401;DHT22;54391;50.000;7.360;2023-04-03T03:46:59;0.40;20.90
39401;DHT22;54391;50.000;7.360;2023-04-03T03:49:28;1.70;21.70
39401;DHT22;54391;50.000;7.360;2023-04-03T03:51:57;1.70;21.90
39401;DHT22;54391;50.000;7.360;2023-04-03T03:54:24;1.70;21.40
39401;DHT22;54391;50.000;7.360;2023-04-03T03:56:51;1.60;21.80
39401;DHT22;54391;50.000;7.360;2023-04-03T03:59:19;3.60;23.10
39401;DHT22;54391;50.000;7.360;2023-04-03T04:01:47;1.60;22.50
39401;DHT22;54391;50.000;7.360;2023-04-03T04:04:14;1.70;22.40
39401;DHT22;54391;50.000;7.360;2023-04-03T04:06:42;1.70;22.50
39401;DHT22;54391;50.000;7.360;2023-04-03T04:09:11;1.70;22.40
39401;DHT22;54391;50.000;7.360;2023-04-03T04:11:39;1.70;22.80
39401;DHT22;54391;50.000;7.360;2023-04-03T04:16:38;1.70;23.30
39401;DHT22;54391;50.000;7.360;2023-04-03T04:19:10;1.70;23.20
39401;DHT22;54391;50.000;7.360;2023-04-03T04:21:38;1.60;23.20
39401;DHT22;54391;50.000;7.360;2023-04-03T04:24:08;1.60;23.90
39401;DHT22;54391;50.000;7.360;2023-04-03T04:26:38;1.50;24.30
39401;DHT22;54391;50.000;7.360;2023-04-03T04:29:08;1.50;25.00
39401;DHT22;54391;50.000;7.360;2023-04-03T04:31:36;1.50;25.00
39401;DHT22;54391;50.000;7.360;2023-04-03T04:34:03;1.50;24.90
39401;DHT22;54391;50.000;7.360;2023-04-03T04:36:31;1.40;25.90
39401;DHT22;54391;50.000;7.360;2023-04-03T04:41:28;1.40;27.00
39401;DHT22;54391;50.000;7.360;2023-04-03T04:43:56;1.40;26.90
39401;DHT22;54391;50.000;7.360;2023-04-03T04:46:25;1.40;27.10
39401;DHT22;54391;50.000;7.360;2023-04-03T04:48:56;1.50;27.30
39401;DHT22;54391;50.000;7.360;2023-04-03T04:51:26;1.30;27.30
39401;DHT22;54391;50.000;7.360;2023-04-03T04:53:54;1.40;28.20
39401;DHT22;54391;50.000;7.360;2023-04-03T04:56:21;1.30;27.60
39401;DHT22;54391;50.000;7.360;2023-04-03T04:58:49;1.30;28.00
39401;DHT22;54391;50.000;7.360;2023-04-03T05:01:19;1.30;28.30
39401;DHT22;54391;50.000;7.360;2023-04-03T05:04:04;1.20;29.80
39401;DHT22;54391;50.000;7.360;2023-04-03T05:11:31;1.20;28.90
39401;DHT22;54391;50.000;7.360;2023-04-03T05:13:59;1.10;30.10
39401;DHT22;54391;50.000;7.360;2023-04-03T05:16:30;1.10;30.80
39401;DHT22;54391;50.000;7.360;2023-04-03T05:18:57;1.10;30.40
39401;DHT22;54391;50.000;7.360;2023-04-03T05:21:25;1.00;30.70
39401;DHT22;54391;50.000;7.360;2023-04-03T05:26:24;1.00;32.30
39401;DHT22;54391;50.000;7.360;2023-04-03T05:28:51;0.90;31.80
39401;DHT22;54391;50.000;7.360;2023-04-03T05:31:20;0.90;32.50
39401;DHT22;54391;50.000;7.360;2023-04-03T05:33:49;0.80;33.60
39401;DHT22;54391;50.000;7.360;2023-04-03T05:36:18;0.80;34.20
39401;DHT22;54391;50.000;7.360;2023-04-03T05:41:18;0.90;34.70
39401;DHT22;54391;50.000;7.360;2023-04-03T05:43:46;0.90;34.90
39401;DHT22;54391;50.000;7.360;2023-04-03T05:46:15;1.00;35.00
39401;DHT22;54391;50.000;7.360;2023-04-03T05:48:46;1.00;35.40
39401;DHT22;54391;50.000;7.360;2023-04-03T05:51:20;1.10;35.00
39401;DHT22;54391;50.000;7.360;2023-04-03T05:53:55;1.00;34.90
39401;DHT22;54391;50.000;7.360;2023-04-03T05:56:23;1.10;35.70
39401;DHT22;54391;50.000;7.360;2023-04-03T06:06:14;1.10;35.70
39401;DHT22;54391;50.000;7.360;2023-04-03T06:08:43;1.10;35.90
39401;DHT22;54391;50.000;7.360;2023-04-03T06:11:11;1.20;35.30
39401;DHT22;54391;50.000;7.360;2023-04-03T06:13:39;1.20;35.50
39401;DHT22;54391;50.000;7.360;2023-04-03T06:16:07;3.10;36.60
39401;DHT22;54391;50.000;7.360;2023-04-03T06:18:35;1.20;35.60
39401;DHT22;54391;50.000;7.360;2023-04-03T06:21:03;1.30;36.60
39401;DHT22;54391;50.000;7.360;2023-04-03T06:26:00;1.70;32.90
39401;DHT22;54391;50.000;7.360;2023-04-03T06:28:27;1.90;30.10
39401;DHT22;54391;50.000;7.360;2023-04-03T06:30:54;1.80;28.00
39401;DHT22;54391;50.000;7.360;2023-04-03T06:33:22;1.70;29.50
39401;DHT22;54391;50.000;7.360;2023-04-03T06:35:49;1.60;29.60
39401;DHT22;54391;50.000;7.360;2023-04-03T06:40:44;2.20;23.90
39401;DHT22;54391;50.000;7.360;2023-04-03T06:43:13;2.30;24.70
39401;DHT22;54391;50.000;7.360;2023-04-03T06:45:40;3.00;20.80
39401;DHT22;54391;50.000;7.360;2023-04-03T06:53:02;5.10;9.40
39401;DHT22;54391;50.000;7.360;2023-04-03T06:57:57;5.70;5.30
39401;DHT22;54391;50.000;7.360;2023-04-03T07:00:26;5.90;4.20
39401;DHT22;54391;50.000;7.360;2023-04-03T07:02:53;5.80;2.90
39401;DHT22;54391;50.000;7.360;2023-04-03T07:05:22;6.00;4.40
39401;DHT22;54391;50.000;7.360;2023-04-03T07:07:49;6.80;2.40
39401;DHT22;54391;50.000;7.360;2023-04-03T07:10:17;6.70;1.00
39401;DHT22;54391;50.000;7.360;2023-04-03T07:15:12;6.60;1.00
39401;DHT22;54391;50.000;7.360;2023-04-03T07:17:41;7.00;1.00
39401;DHT22;54391;50.000;7.360;2023-04-03T07:20:09;7.10;1.00
39401;DHT22;54391;50.000;7.360;2023-04-03T07:22:36;7.50;1.00
39401;DHT22;54391;50.000;7.360;2023-04-03T07:25:05;7.70;1.00
39401;DHT22;54391;50.000;7.360;2023-04-03T07:27:33;7.40;1.00
39401;DHT22;54391;50.000;7.360;2023-04-03T07:32:28;7.50;1.00
39401;DHT22;54391;50.000;7.360;2023-04-03T07:34:58;7.70;1.00
39401;DHT22;54391;50.000;7.360;2023-04-03T07:37:25;8.30;1.00
39401;DHT22;54391;50.000;7.360;2023-04-03T07:44:48;7.80;1.00
39401;DHT22;54391;50.000;7.360;2023-04-03T07:49:43;7.60;1.00
39401;DHT22;54391;50.000;7.360;2023-04-03T07:52:12;8.20;1.00
39401;DHT22;54391;50.000;7.360;2023-04-03T07:54:40;8.60;1.00
39401;DHT22;54391;50.000;7.360;2023-04-03T07:57:07;8.30;1.00
39401;DHT22;54391;50.000;7.360;2023-04-03T08:02:03;8.20;1.00
39401;DHT22;54391;50.000;7.360;2023-04-03T08:06:58;8.70;1.00
39401;DHT22;54391;50.000;7.360;2023-04-03T08:09:26;9.40;1.00
39401;DHT22;54391;50.000;7.360;2023-04-03T08:11:54;9.50;1.00
39401;DHT22;54391;50.000;7.360;2023-04-03T08:16:49;9.30;1.00
39401;DHT22;54391;50.000;7.360;2023-04-03T08:19:16;9.20;1.00
39401;DHT22;54391;50.000;7.360;2023-04-03T08:21:44;9.30;1.00
39401;DHT22;54391;50.000;7.360;2023-04-03T08:26:41;9.10;1.00
39401;DHT22;54391;50.000;7.360;2023-04-03T08:29:08;9.40;1.00
39401;DHT22;54391;50.000;7.360;2023-04-03T08:34:04;9.80;1.00
39401;DHT22;54391;50.000;7.360;2023-04-03T08:36:31;9.70;1.00
39401;DHT22;54391;50.000;7.360;2023-04-03T08:41:32;9.90;1.00
39401;DHT22;54391;50.000;7.360;2023-04-03T08:44:11;9.80;1.00
39401;DHT22;54391;50.000;7.360;2023-04-03T08:47:01;10.00;1.00
39401;DHT22;54391;50.000;7.360;2023-04-03T08:49:33;10.10;1.00
39401;DHT22;54391;50.000;7.360;2023-04-03T08:52:04;9.80;1.00
39401;DHT22;54391;50.000;7.360;2023-04-03T08:54:36;10.30;1.00
39401;DHT22;54391;50.000;7.360;2023-04-03T08:57:05;9.80;1.00
39401;DHT22;54391;50.000;7.360;2023-04-03T08:59:36;8.00;1.00
39401;DHT22;54391;50.000;7.360;2023-04-03T09:02:18;7.80;1.00
39401;DHT22;54391;50.000;7.360;2023-04-03T09:04:49;8.30;1.00
39401;DHT22;54391;50.000;7.360;2023-04-03T09:07:20;8.20;1.00
39401;DHT22;54391;50.000;7.360;2023-04-03T09:09:52;8.10;1.00
39401;DHT22;54391;50.000;7.360;2023-04-03T09:12:24;8.30;1.00
39401;DHT22;54391;50.000;7.360;2023-04-03T09:15:01;8.40;1.00
39401;DHT22;54391;50.000;7.360;2023-04-03T09:17:40;8.00;1.00
39401;DHT22;54391;50.000;7.360;2023-04-03T09:20:19;7.70;1.00
39401;DHT22;54391;50.000;7.360;2023-04-03T09:22:47;7.30;1.00
39401;DHT22;54391;50.000;7.360;2023-04-03T09:25:19;6.50;1.00
39401;DHT22;54391;50.000;7.360;2023-04-03T09:27:47;6.20;1.00
39401;DHT22;54391;50.000;7.360;2023-04-03T09:30:18;5.60;1.00
39401;DHT22;54391;50.000;7.360;2023-04-03T09:32:47;5.50;1.00
39401;DHT22;54391;50.000;7.360;2023-04-03T09:35:21;5.20;1.00
39401;DHT22;54391;50.000;7.360;2023-04-03T09:37:50;6.50;1.00
39401;DHT22;54391;50.000;7.360;2023-04-03T09:40:37;7.90;1.00
39401;DHT22;54391;50.000;7.360;2023-04-03T09:43:27;8.20;1.00
39401;DHT22;54391;50.000;7.360;2023-04-03T09:45:56;7.70;1.00
39401;DHT22;54391;50.000;7.360;2023-04-03T09:48:50;7.10;1.00
39401;DHT22;54391;50.000;7.360;2023-04-03T09:51:18;6.80;1.00
39401;DHT22;54391;50.000;7.360;2023-04-03T09:53:45;6.30;1.00
39401;DHT22;54391;50.000;7.360;2023-04-03T09:56:21;6.20;1.00
39401;DHT22;54391;50.000;7.360;2023-04-03T09:58:50;6.90;1.00
39401;DHT22;54391;50.000;7.360;2023-04-03T10:01:25;7.80;1.00
39401;DHT22;54391;50.000;7.360;2023-04-03T10:04:05;8.80;1.00
39401;DHT22;54391;50.000;7.360;2023-04-03T10:06:34;7.80;1.00
39401;DHT22;54391;50.000;7.360;2023-04-03T10:09:04;7.10;1.00
39401;DHT22;54391;50.000;7.360;2023-04-03T10:11:32;6.80;1.00
39401;DHT22;54391;50.000;7.360;2023-04-03T10:14:01;6.70;1.00
39401;DHT22;54391;50.000;7.360;2023-04-03T10:16:36;6.10;1.00
39401;DHT22;54391;50.000;7.360;2023-04-03T10:19:25;5.60;1.00
39401;DHT22;54391;50.000;7.360;2023-04-03T10:21:59;6.00;1.00
39401;DHT22;54391;50.000;7.360;2023-04-03T10:24:33;5.90;1.00
39401;DHT22;54391;50.000;7.360;2023-04-03T10:27:05;5.50;1.00
39401;DHT22;54391;50.000;7.360;2023-04-03T10:29:40;5.50;1.00
39401;DHT22;54391;50.000;7.360;2023-04-03T10:32:26;5.50;1.00
39401;DHT22;54391;50.000;7.360;2023-04-03T10:35:01;6.90;1.00
39401;DHT22;54391;50.000;7.360;2023-04-03T10:37:34;7.30;1.00
39401;DHT22;54391;50.000;7.360;2023-04-03T10:40:14;6.90;1.00
39401;DHT22;54391;50.000;7.360;2023-04-03T10:42:47;7.00;1.00
39401;DHT22;54391;50.000;7.360;2023-04-03T10:45:24;6.80;1.00
39401;DHT22;54391;50.000;7.360;2023-04-03T10:48:01;7.40;1.00
39401;DHT22;54391;50.000;7.360;2023-04-03T10:50:40;7.50;1.00
39401;DHT22;54391;50.000;7.360;2023-04-03T10:53:16;7.40;1.00
39401;DHT22;54391;50.000;7.360;2023-04-03T10:55:52;7.50;1.00
39401;DHT22;54391;50.000;7.360;2023-04-03T10:58:26;7.90;1.00
39401;DHT22;54391;50.000;7.360;2023-04-03T11:01:02;8.70;1.00
39401;DHT22;54391;50.000;7.360;2023-04-03T11:03:36;8.50;1.00
39401;DHT22;54391;50.000;7.360;2023-04-03T11:06:07;8.10;1.00
39401;DHT22;54391;50.000;7.360;2023-04-03T11:08:39;8.40;1.00
39401;DHT22;54391;50.000;7.360;2023-04-03T11:11:11;7.90;1.00
39401;DHT22;54391;50.000;7.360;2023-04-03T11:13:43;7.50;1.00
39401;DHT22;54391;50.000;7.360;2023-04-03T11:16:14;6.80;1.00
39401;DHT22;54391;50.000;7.360;2023-04-03T11:18:49;6.60;1.00
39401;DHT22;54391;50.000;7.360;2023-04-03T11:21:20;6.90;1.00
39401;DHT22;54391;50.000;7.360;2023-04-03T11:23:49;7.80;1.00
39401;DHT22;54391;50.000;7.360;2023-04-03T11:26:19;8.50;1.00
39401;DHT22;54391;50.000;7.360;2023-04-03T11:28:52;8.30;1.00
39401;DHT22;54391;50.000;7.360;2023-04-03T11:31:32;7.70;1.00
39401;DHT22;54391;50.000;7.360;2023-04-03T11:34:17;7.20;1.00
39401;DHT22;54391;50.000;7.360;2023-04-03T11:36:49;7.50;1.00
39401;DHT22;54391;50.000;7.360;2023-04-03T11:39:22;7.60;1.00
39401;DHT22;54391;50.000;7.360;2023-04-03T11:41:50;8.20;1.00
39401;DHT22;54391;50.000;7.360;2023-04-03T11:44:33;8.90;1.00
39401;DHT22;54391;50.000;7.360;2023-04-03T11:47:04;8.70;1.00
39401;DHT22;54391;50.000;7.360;2023-04-03T11:49:57;8.20;1.00
39401;DHT22;54391;50.000;7.360;2023-04-03T11:53:08;7.70;1.00
39401;DHT22;54391;50.000;7.360;2023-04-03T11:55:56;8.00;1.00
39401;DHT22;54391;50.000;7.360;2023-04-03T11:58:24;8.30;1.00
39401;DHT22;54391;50.000;7.360;2023-04-03T12:00:55;8.70;1.00
39401;DHT22;54391;50.000;7.360;2023-04-03T12:04:07;8.50;1.00
39401;DHT22;54391;50.000;7.360;2023-04-03T12:07:01;8.30;1.00
39401;DHT22;54391;50.000;7.360;2023-04-03T12:12:34;8.50;1.00
39401;DHT22;54391;50.000;7.360;2023-04-03T12:15:38;8.20;1.00
39401;DHT22;54391;50.000;7.360;2023-04-03T12:18:40;8.30;1.00
39401;DHT22;54391;50.000;7.360;2023-04-03T12:21:09;8.30;1.00
39401;DHT22;54391;50.000;7.360;2023-04-03T12:24:00;8.20;1.00
39401;DHT22;54391;50.000;7.360;2023-04-03T12:26:32;8.20;1.00
39401;DHT22;54391;50.000;7.360;2023-04-03T12:29:02;7.40;1.00
39401;DHT22;54391;50.000;7.360;2023-04-03T12:31:42;7.00;1.00
39401;DHT22;54391;50.000;7.360;2023-04-03T12:34:23;7.90;1.00
39401;DHT22;54391;50.000;7.360;2023-04-03T12:37:02;8.40;1.00
39401;DHT22;54391;50.000;7.360;2023-04-03T12:39:43;8.70;1.00
39401;DHT22;54391;50.000;7.360;2023-04-03T12:42:41;8.20;1.00
39401;DHT22;54391;50.000;7.360;2023-04-03T12:45:15;7.40;1.00
39401;DHT22;54391;50.000;7.360;2023-04-03T12:47:45;7.10;1.00
39401;DHT22;54391;50.000;7.360;2023-04-03T12:50:21;6.70;1.00
39401;DHT22;54391;50.000;7.360;2023-04-03T12:52:56;6.90;1.00
39401;DHT22;54391;50.000;7.360;2023-04-03T12:55:25;6.90;1.00
39401;DHT22;54391;50.000;7.360;2023-04-03T12:57:53;6.70;1.00
39401;DHT22;54391;50.000;7.360;2023-04-03T13:00:30;6.30;1.00
39401;DHT22;54391;50.000;7.360;2023-04-03T13:02:58;6.40;1.00
39401;DHT22;54391;50.000;7.360;2023-04-03T13:05:28;6.60;1.00
39401;DHT22;54391;50.000;7.360;2023-04-03T13:07:59;6.80;1.00
39401;DHT22;54391;50.000;7.360;2023-04-03T13:10:30;6.60;1.00
39401;DHT22;54391;50.000;7.360;2023-04-03T13:13:07;6.50;1.00
39401;DHT22;54391;50.000;7.360;2023-04-03T13:15:40;6.60;1.00
39401;DHT22;54391;50.000;7.360;2023-04-03T13:18:22;6.60;1.00
39401;DHT22;54391;50.000;7.360;2023-04-03T13:20:49;6.70;1.00
39401;DHT22;54391;50.000;7.360;2023-04-03T13:23:17;7.10;1.00
39401;DHT22;54391;50.000;7.360;2023-04-03T13:25:48;7.00;1.00
39401;DHT22;54391;50.000;7.360;2023-04-03T13:28:19;6.70;1.00
39401;DHT22;54391;50.000;7.360;2023-04-03T13:31:02;6.60;1.00
39401;DHT22;54391;50.000;7.360;2023-04-03T13:33:31;8.10;1.00
39401;DHT22;54391;50.000;7.360;2023-04-03T13:36:03;6.70;1.00
39401;DHT22;54391;50.000;7.360;2023-04-03T13:38:32;6.60;1.00
39401;DHT22;54391;50.000;7.360;2023-04-03T13:41:03;6.80;1.00
39401;DHT22;54391;50.000;7.360;2023-04-03T13:43:33;6.60;1.00
39401;DHT22;54391;50.000;7.360;2023-04-03T13:46:05;6.50;1.00
39401;DHT22;54391;50.000;7.360;2023-04-03T13:48:38;6.60;1.00
39401;DHT22;54391;50.000;7.360;2023-04-03T13:51:16;7.30;1.00
39401;DHT22;54391;50.000;7.360;2023-04-03T13:53:46;6.90;1.00
39401;DHT22;54391;50.000;7.360;2023-04-03T13:56:24;6.80;1.00
39401;DHT22;54391;50.000;7.360;2023-04-03T13:58:59;6.90;1.00
39401;DHT22;54391;50.000;7.360;2023-04-03T14:01:41;6.80;1.00
39401;DHT22;54391;50.000;7.360;2023-04-03T14:04:15;6.70;1.00
39401;DHT22;54391;50.000;7.360;2023-04-03T14:06:43;6.80;1.00
39401;DHT22;54391;50.000;7.360;2023-04-03T14:09:10;6.90;1.00
39401;DHT22;54391;50.000;7.360;2023-04-03T14:11:39;7.10;1.00
39401;DHT22;54391;50.000;7.360;2023-04-03T14:14:13;7.40;1.00
39401;DHT22;54391;50.000;7.360;2023-04-03T14:16:42;7.50;1.00
39401;DHT22;54391;50.000;7.360;2023-04-03T14:19:18;7.50;1.00
39401;DHT22;54391;50.000;7.360;2023-04-03T14:21:46;7.20;1.00
39401;DHT22;54391;50.000;7.360;2023-04-03T14:24:13;6.80;1.00
39401;DHT22;54391;50.000;7.360;2023-04-03T14:26:44;6.60;1.00
39401;DHT22;54391;50.000;7.360;2023-04-03T14:29:12;6.40;1.00
39401;DHT22;54391;50.000;7.360;2023-04-03T14:31:39;6.30;1.00
39401;DHT22;54391;50.000;7.360;2023-04-03T14:36:35;6.70;1.00
39401;DHT22;54391;50.000;7.360;2023-04-03T14:39:03;6.60;1.00
39401;DHT22;54391;50.000;7.360;2023-04-03T14:41:31;6.50;1.00
39401;DHT22;54391;50.000;7.360;2023-04-03T14:43:59;6.60;1.00
39401;DHT22;54391;50.000;7.360;2023-04-03T14:46:30;6.60;1.00
39401;DHT22;54391;50.000;7.360;2023-04-03T14:48:58;6.60;1.00
39401;DHT22;54391;50.000;7.360;2023-04-03T14:51:26;6.70;1.00
39401;DHT22;54391;50.000;7.360;2023-04-03T14:53:53;6.60;1.00
39401;DHT22;54391;50.000;7.360;2023-04-03T14:56:24;6.60;1.00
39401;DHT22;54391;50.000;7.360;2023-04-03T14:58:56;6.50;1.00
39401;DHT22;54391;50.000;7.360;2023-04-03T15:01:26;6.80;1.00
39401;DHT22;54391;50.000;7.360;2023-04-03T15:03:53;6.80;1.00
39401;DHT22;54391;50.000;7.360;2023-04-03T15:06:20;6.80;1.00
39401;DHT22;54391;50.000;7.360;2023-04-03T15:08:48;6.90;1.00
39401;DHT22;54391;50.000;7.360;2023-04-03T15:13:42;7.00;1.00
39401;DHT22;54391;50.000;7.360;2023-04-03T15:16:16;6.90;1.00
39401;DHT22;54391;50.000;7.360;2023-04-03T15:18:45;6.80;1.00
39401;DHT22;54391;50.000;7.360;2023-04-03T15:21:13;6.50;1.00
39401;DHT22;54391;50.000;7.360;2023-04-03T15:26:09;6.30;1.00
39401;DHT22;54391;50.000;7.360;2023-04-03T15:28:38;6.20;1.00
39401;DHT22;54391;50.000;7.360;2023-04-03T15:31:06;6.20;1.00
39401;DHT22;54391;50.000;7.360;2023-04-03T15:33:35;6.10;1.00
39401;DHT22;54391;50.000;7.360;2023-04-03T15:36:05;6.20;1.00
39401;DHT22;54391;50.000;7.360;2023-04-03T15:41:00;6.20;1.00
39401;DHT22;54391;50.000;7.360;2023-04-03T15:45:56;6.30;1.00
39401;DHT22;54391;50.000;7.360;2023-04-03T15:48:25;6.30;1.00
39401;DHT22;54391;50.000;7.360;2023-04-03T15:50:53;6.20;1.00
39401;DHT22;54391;50.000;7.360;2023-04-03T15:53:22;6.30;1.00
39401;DHT22;54391;50.000;7.360;2023-04-03T15:55:49;6.20;1.00
39401;DHT22;54391;50.000;7.360;2023-04-03T15:58:16;6.00;1.00
39401;DHT22;54391;50.000;7.360;2023-04-03T16:00:43;6.20;1.00
39401;DHT22;54391;50.000;7.360;2023-04-03T16:03:14;6.00;1.00
39401;DHT22;54391;50.000;7.360;2023-04-03T16:05:42;6.10;1.00
39401;DHT22;54391;50.000;7.360;2023-04-03T16:08:10;6.00;1.00
39401;DHT22;54391;50.000;7.360;2023-04-03T16:10:39;5.90;1.00
39401;DHT22;54391;50.000;7.360;2023-04-03T16:13:06;5.90;1.00
39401;DHT22;54391;50.000;7.360;2023-04-03T16:15:34;5.90;1.00
39401;DHT22;54391;50.000;7.360;2023-04-03T16:18:03;5.80;1.00
39401;DHT22;54391;50.000;7.360;2023-04-03T16:20:31;5.80;1.00
39401;DHT22;54391;50.000;7.360;2023-04-03T16:22:59;5.80;1.00
39401;DHT22;54391;50.000;7.360;2023-04-03T16:25:27;5.70;1.00
39401;DHT22;54391;50.000;7.360;2023-04-03T16:27:58;5.60;1.00
39401;DHT22;54391;50.000;7.360;2023-04-03T16:30:27;5.60;1.00
39401;DHT22;54391;50.000;7.360;2023-04-03T16:32:54;5.50;1.00
39401;DHT22;54391;50.000;7.360;2023-04-03T16:35:23;5.40;1.00
39401;DHT22;54391;50.000;7.360;2023-04-03T16:40:18;5.30;1.00
39401;DHT22;54391;50.000;7.360;2023-04-03T16:42:45;5.40;1.00
39401;DHT22;54391;50.000;7.360;2023-04-03T16:45:14;5.30;1.00
39401;DHT22;54391;50.000;7.360;2023-04-03T16:47:41;5.10;1.00
39401;DHT22;54391;50.000;7.360;2023-04-03T16:50:09;5.00;1.00
39401;DHT22;54391;50.000;7.360;2023-04-03T16:52:36;5.10;1.00
39401;DHT22;54391;50.000;7.360;2023-04-03T16:55:04;5.20;1.00
39401;DHT22;54391;50.000;7.360;2023-04-03T16:57:31;5.30;1.00
39401;DHT22;54391;50.000;7.360;2023-04-03T16:59:59;5.10;1.00
39401;DHT22;54391;50.000;7.360;2023-04-03T17:02:27;5.10;1.00
39401;DHT22;54391;50.000;7.360;2023-04-03T17:04:55;5.00;1.00
39401;DHT22;54391;50.000;7.360;2023-04-03T17:07:24;5.10;1.00
39401;DHT22;54391;50.000;7.360;2023-04-03T17:09:52;5.00;1.00
39401;DHT22;54391;50.000;7.360;2023-04-03T17:12:20;5.00;1.00
39401;DHT22;54391;50.000;7.360;2023-04-03T17:14:48;4.90;1.00
39401;DHT22;54391;50.000;7.360;2023-04-03T17:17:15;4.90;1.00
39401;DHT22;54391;50.000;7.360;2023-04-03T17:19:46;4.80;1.00
39401;DHT22;54391;50.000;7.360;2023-04-03T17:22:14;4.80;1.00
39401;DHT22;54391;50.000;7.360;2023-04-03T17:24:42;4.70;1.00
39401;DHT22;54391;50.000;7.360;2023-04-03T17:29:37;4.60;1.00
39401;DHT22;54391;50.000;7.360;2023-04-03T17:32:04;4.60;1.00
39401;DHT22;54391;50.000;7.360;2023-04-03T17:34:31;4.40;1.00
39401;DHT22;54391;50.000;7.360;2023-04-03T17:37:03;4.40;1.00
39401;DHT22;54391;50.000;7.360;2023-04-03T17:39:30;4.30;1.00
39401;DHT22;54391;50.000;7.360;2023-04-03T17:41:57;4.20;1.00
39401;DHT22;54391;50.000;7.360;2023-04-03T17:44:25;4.10;1.00
39401;DHT22;54391;50.000;7.360;2023-04-03T17:46:53;4.20;1.00
39401;DHT22;54391;50.000;7.360;2023-04-03T17:54:17;3.80;1.00
39401;DHT22;54391;50.000;7.360;2023-04-03T17:56:44;3.80;1.00
39401;DHT22;54391;50.000;7.360;2023-04-03T17:59:13;3.80;1.00
39401;DHT22;54391;50.000;7.360;2023-04-03T18:01:43;3.70;1.00
39401;DHT22;54391;50.000;7.360;2023-04-03T18:06:40;3.70;1.00
39401;DHT22;54391;50.000;7.360;2023-04-03T18:09:10;3.50;1.00
39401;DHT22;54391;50.000;7.360;2023-04-03T18:11:41;3.40;1.00
39401;DHT22;54391;50.000;7.360;2023-04-03T18:14:09;3.40;1.00
39401;DHT22;54391;50.000;7.360;2023-04-03T18:16:37;3.30;1.00